sensor_id;sensor_type;location;lat;lon;timestamp;temperature;humidity
26505;DHT22;19493;48.042;7.584;2023-08-08T00:02:13;14.00;99.90
26505;DHT22;19493;48.042;7.584;2023-08-08T00:04:39;13.90;99.90
26505;DHT22;19493;48.042;7.584;2023-08-08T00:07:04;13.80;99.90
26505;DHT22;19493;48.042;7.584;2023-08-08T00:09:30;13.70;99.90
26505;DHT22;19493;48.042;7.584;2023-08-08T00:11:55;13.70;99.90
26505;DHT22;19493;48.042;7.584;2023-08-08T00:14:23;13.60;99.90
26505;DHT22;19493;48.042;7.584;2023-08-08T00:16:48;13.60;99.90
26505;DHT22;19493;48.042;7.584;2023-08-08T00:19:14;13.50;99.90
26505;DHT22;19493;48.042;7.584;2023-08-08T00:21:40;13.40;99.90
26505;DHT22;19493;48.042;7.584;2023-08-08T00:24:05;13.20;99.90
26505;DHT22;19493;48.042;7.584;2023-08-08T00:26:31;13.10;99.90
26505;DHT22;19493;48.042;7.584;2023-08-08T00:28:57;12.90;99.90
26505;DHT22;19493;48.042;7.584;2023-08-08T00:31:22;12.80;99.90
26505;DHT22;19493;48.042;7.584;2023-08-08T00:33:48;12.70;99.90
26505;DHT22;19493;48.042;7.584;2023-08-08T00:36:13;12.70;99.90
26505;DHT22;19493;48.042;7.584;2023-08-08T00:41:05;12.70;99.90
26505;DHT22;19493;48.042;7.584;2023-08-08T00:43:30;12.70;99.90
26505;DHT22;19493;48.042;7.584;2023-08-08T00:45:57;12.70;99.90
26505;DHT22;19493;48.042;7.584;2023-08-08T00:48:23;12.70;99.90
26505;DHT22;19493;48.042;7.584;2023-08-08T00:50:50;12.70;99.90
26505;DHT22;19493;48.042;7.584;2023-08-08T00:53:17;12.70;99.90
26505;DHT22;19493;48.042;7.584;2023-08-08T00:55:42;12.60;99.90
26505;DHT22;19493;48.042;7.584;2023-08-08T00:58:08;12.60;99.90
26505;DHT22;19493;48.042;7.584;2023-08-08T01:00:34;12.60;99.90
26505;DHT22;19493;48.042;7.584;2023-08-08T01:02:59;12.50;99.90
26505;DHT22;19493;48.042;7.584;2023-08-08T01:05:30;12.50;99.90
26505;DHT22;19493;48.042;7.584;2023-08-08T01:08:04;12.60;99.90
26505;DHT22;19493;48.042;7.584;2023-08-08T01:10:34;12.50;99.90
26505;DHT22;19493;48.042;7.584;2023-08-08T01:13:07;12.40;99.90
26505;DHT22;19493;48.042;7.584;2023-08-08T01:15:34;12.40;99.90
26505;DHT22;19493;48.042;7.584;2023-08-08T01:18:04;12.30;99.90
26505;DHT22;19493;48.042;7.584;2023-08-08T01:20:32;12.20;99.90
26505;DHT22;19493;48.042;7.584;2023-08-08T01:23:12;12.10;99.90
26505;DHT22;19493;48.042;7.584;2023-08-08T01:25:40;12.00;99.90
26505;DHT22;19493;48.042;7.584;2023-08-08T01:28:07;11.90;99.90
26505;DHT22;19493;48.042;7.584;2023-08-08T01:30:33;11.90;99.90
26505;DHT22;19493;48.042;7.584;2023-08-08T01:32:58;11.90;99.90
26505;DHT22;19493;48.042;7.584;2023-08-08T01:35:27;11.80;99.90
26505;DHT22;19493;48.042;7.584;2023-08-08T01:38:00;11.80;99.90
26505;DHT22;19493;48.042;7.584;2023-08-08T01:40:29;11.80;99.90
26505;DHT22;19493;48.042;7.584;2023-08-08T01:42:55;11.80;99.90
26505;DHT22;19493;48.042;7.584;2023-08-08T01:45:21;11.80;99.90
26505;DHT22;19493;48.042;7.584;2023-08-08T01:47:50;11.80;99.90
26505;DHT22;19493;48.042;7.584;2023-08-08T01:50:16;11.70;99.90
26505;DHT22;19493;48.042;7.584;2023-08-08T01:52:42;11.70;99.90
26505;DHT22;19493;48.042;7.584;2023-08-08T01:55:08;11.60;99.90
26505;DHT22;19493;48.042;7.584;2023-08-08T01:57:33;11.60;99.90
26505;DHT22;19493;48.042;7.584;2023-08-08T01:59:59;11.60;99.90
26505;DHT22;19493;48.042;7.584;2023-08-08T02:02:25;11.50;99.90
26505;DHT22;19493;48.042;7.584;2023-08-08T02:04:51;11.50;99.90
26505;DHT22;19493;48.042;7.584;2023-08-08T02:07:16;11.50;99.90
26505;DHT22;19493;48.042;7.584;2023-08-08T02:09:42;11.40;99.90
26505;DHT22;19493;48.042;7.584;2023-08-08T02:12:07;11.40;99.90
26505;DHT22;19493;48.042;7.584;2023-08-08T02:14:33;11.40;99.90
26505;DHT22;19493;48.042;7.584;2023-08-08T02:16:58;11.40;99.90
26505;DHT22;19493;48.042;7.584;2023-08-08T02:19:24;11.40;99.90
26505;DHT22;19493;48.042;7.584;2023-08-08T02:21:49;11.30;99.90
26505;DHT22;19493;48.042;7.584;2023-08-08T02:24:15;11.30;99.90
26505;DHT22;19493;48.042;7.584;2023-08-08T02:26:40;11.30;99.90
26505;DHT22;19493;48.042;7.584;2023-08-08T02:29:06;11.20;99.90
26505;DHT22;19493;48.042;7.584;2023-08-08T02:31:32;11.10;99.90
26505;DHT22;19493;48.042;7.584;2023-08-08T02:33:57;11.10;99.90
26505;DHT22;19493;48.042;7.584;2023-08-08T02:36:23;11.00;99.90
26505;DHT22;19493;48.042;7.584;2023-08-08T02:38:48;11.00;99.90
26505;DHT22;19493;48.042;7.584;2023-08-08T02:41:15;10.90;99.90
26505;DHT22;19493;48.042;7.584;2023-08-08T02:43:41;10.90;99.90
26505;DHT22;19493;48.042;7.584;2023-08-08T02:46:06;10.90;99.90
26505;DHT22;19493;48.042;7.584;2023-08-08T02:48:32;10.80;99.90
26505;DHT22;19493;48.042;7.584;2023-08-08T02:50:57;10.90;99.90
26505;DHT22;19493;48.042;7.584;2023-08-08T02:53:23;10.90;99.90
26505;DHT22;19493;48.042;7.584;2023-08-08T02:55:49;10.80;99.90
26505;DHT22;19493;48.042;7.584;2023-08-08T02:58:14;10.80;99.90
26505;DHT22;19493;48.042;7.584;2023-08-08T03:00:40;10.90;99.90
26505;DHT22;19493;48.042;7.584;2023-08-08T03:03:05;10.90;99.90
26505;DHT22;19493;48.042;7.584;2023-08-08T03:05:31;10.90;99.90
26505;DHT22;19493;48.042;7.584;2023-08-08T03:07:57;10.80;99.90
26505;DHT22;19493;48.042;7.584;2023-08-08T03:10:22;10.80;99.90
26505;DHT22;19493;48.042;7.584;2023-08-08T03:12:48;10.70;99.90
26505;DHT22;19493;48.042;7.584;2023-08-08T03:15:14;10.70;99.90
26505;DHT22;19493;48.042;7.584;2023-08-08T03:17:39;10.70;99.90
26505;DHT22;19493;48.042;7.584;2023-08-08T03:20:05;10.60;99.90
26505;DHT22;19493;48.042;7.584;2023-08-08T03:22:32;10.60;99.90
26505;DHT22;19493;48.042;7.584;2023-08-08T03:24:57;10.50;99.90
26505;DHT22;19493;48.042;7.584;2023-08-08T03:27:24;10.50;99.90
26505;DHT22;19493;48.042;7.584;2023-08-08T03:29:50;10.50;99.90
26505;DHT22;19493;48.042;7.584;2023-08-08T03:32:16;10.50;99.90
26505;DHT22;19493;48.042;7.584;2023-08-08T03:34:41;10.40;99.90
26505;DHT22;19493;48.042;7.584;2023-08-08T03:37:07;10.30;99.90
26505;DHT22;19493;48.042;7.584;2023-08-08T03:39:32;10.30;99.90
26505;DHT22;19493;48.042;7.584;2023-08-08T03:41:58;10.30;99.90
26505;DHT22;19493;48.042;7.584;2023-08-08T03:44:24;10.30;99.90
26505;DHT22;19493;48.042;7.584;2023-08-08T03:46:49;10.30;99.90
26505;DHT22;19493;48.042;7.584;2023-08-08T03:49:16;10.30;99.90
26505;DHT22;19493;48.042;7.584;2023-08-08T03:51:41;10.30;99.90
26505;DHT22;19493;48.042;7.584;2023-08-08T03:54:07;10.20;99.90
26505;DHT22;19493;48.042;7.584;2023-08-08T03:56:32;10.20;99.90
26505;DHT22;19493;48.042;7.584;2023-08-08T03:58:58;10.10;99.90
26505;DHT22;19493;48.042;7.584;2023-08-08T04:01:24;10.10;99.90
26505;DHT22;19493;48.042;7.584;2023-08-08T04:03:49;10.00;99.90
26505;DHT22;19493;48.042;7.584;2023-08-08T04:06:15;10.00;99.90
26505;DHT22;19493;48.042;7.584;2023-08-08T04:08:40;10.00;99.90
26505;DHT22;19493;48.042;7.584;2023-08-08T04:11:06;10.00;99.90
26505;DHT22;19493;48.042;7.584;2023-08-08T04:13:31;10.00;99.90
26505;DHT22;19493;48.042;7.584;2023-08-08T04:15:57;10.10;99.90
26505;DHT22;19493;48.042;7.584;2023-08-08T04:18:22;10.10;99.90
26505;DHT22;19493;48.042;7.584;2023-08-08T04:20:48;10.10;99.90
26505;DHT22;19493;48.042;7.584;2023-08-08T04:23:14;10.10;99.90
26505;DHT22;19493;48.042;7.584;2023-08-08T04:25:39;10.10;99.90
26505;DHT22;19493;48.042;7.584;2023-08-08T04:28:05;10.10;99.90
26505;DHT22;19493;48.042;7.584;2023-08-08T04:30:31;10.20;99.90
26505;DHT22;19493;48.042;7.584;2023-08-08T04:32:56;10.30;99.90
26505;DHT22;19493;48.042;7.584;2023-08-08T04:35:22;10.30;99.90
26505;DHT22;19493;48.042;7.584;2023-08-08T04:37:47;10.40;99.90
26505;DHT22;19493;48.042;7.584;2023-08-08T04:40:13;10.40;99.90
26505;DHT22;19493;48.042;7.584;2023-08-08T04:42:39;10.50;99.90
26505;DHT22;19493;48.042;7.584;2023-08-08T04:45:05;10.50;99.90
26505;DHT22;19493;48.042;7.584;2023-08-08T04:47:31;10.60;99.90
26505;DHT22;19493;48.042;7.584;2023-08-08T04:49:57;10.60;99.90
26505;DHT22;19493;48.042;7.584;2023-08-08T04:52:22;10.60;99.90
26505;DHT22;19493;48.042;7.584;2023-08-08T04:54:48;10.60;99.90
26505;DHT22;19493;48.042;7.584;2023-08-08T04:57:13;10.60;99.90
26505;DHT22;19493;48.042;7.584;2023-08-08T04:59:39;10.60;99.90
26505;DHT22;19493;48.042;7.584;2023-08-08T05:02:05;10.60;99.90
26505;DHT22;19493;48.042;7.584;2023-08-08T05:04:30;10.60;99.90
26505;DHT22;19493;48.042;7.584;2023-08-08T05:06:56;10.70;99.90
26505;DHT22;19493;48.042;7.584;2023-08-08T05:09:23;10.70;99.90
26505;DHT22;19493;48.042;7.584;2023-08-08T05:11:52;10.80;99.90
26505;DHT22;19493;48.042;7.584;2023-08-08T05:14:17;10.90;99.90
26505;DHT22;19493;48.042;7.584;2023-08-08T05:16:43;11.00;99.90
26505;DHT22;19493;48.042;7.584;2023-08-08T05:19:08;11.00;99.90
26505;DHT22;19493;48.042;7.584;2023-08-08T05:21:34;11.10;99.90
26505;DHT22;19493;48.042;7.584;2023-08-08T05:24:00;11.30;99.90
26505;DHT22;19493;48.042;7.584;2023-08-08T05:26:25;11.50;99.90
26505;DHT22;19493;48.042;7.584;2023-08-08T05:28:51;11.60;99.90
26505;DHT22;19493;48.042;7.584;2023-08-08T05:31:16;11.80;99.90
26505;DHT22;19493;48.042;7.584;2023-08-08T05:33:42;11.90;99.90
26505;DHT22;19493;48.042;7.584;2023-08-08T05:36:07;12.10;99.90
26505;DHT22;19493;48.042;7.584;2023-08-08T05:38:33;12.20;99.90
26505;DHT22;19493;48.042;7.584;2023-08-08T05:40:58;12.40;99.90
26505;DHT22;19493;48.042;7.584;2023-08-08T05:43:24;12.50;99.90
26505;DHT22;19493;48.042;7.584;2023-08-08T05:45:50;12.60;99.90
26505;DHT22;19493;48.042;7.584;2023-08-08T05:48:15;12.70;99.90
26505;DHT22;19493;48.042;7.584;2023-08-08T05:50:41;12.80;99.90
26505;DHT22;19493;48.042;7.584;2023-08-08T05:53:07;12.80;99.90
26505;DHT22;19493;48.042;7.584;2023-08-08T05:55:33;12.90;99.90
26505;DHT22;19493;48.042;7.584;2023-08-08T05:57:58;13.00;99.90
26505;DHT22;19493;48.042;7.584;2023-08-08T06:00:24;13.10;99.90
26505;DHT22;19493;48.042;7.584;2023-08-08T06:02:50;13.20;99.90
26505;DHT22;19493;48.042;7.584;2023-08-08T06:05:17;13.30;99.90
26505;DHT22;19493;48.042;7.584;2023-08-08T06:07:42;13.30;99.90
26505;DHT22;19493;48.042;7.584;2023-08-08T06:10:08;13.40;99.90
26505;DHT22;19493;48.042;7.584;2023-08-08T06:12:34;13.50;99.90
26505;DHT22;19493;48.042;7.584;2023-08-08T06:15:00;13.60;99.90
26505;DHT22;19493;48.042;7.584;2023-08-08T06:17:25;13.60;99.90
26505;DHT22;19493;48.042;7.584;2023-08-08T06:19:51;13.70;99.90
26505;DHT22;19493;48.042;7.584;2023-08-08T06:22:17;13.80;99.90
26505;DHT22;19493;48.042;7.584;2023-08-08T06:24:42;13.80;99.90
26505;DHT22;19493;48.042;7.584;2023-08-08T06:27:08;14.00;99.90
26505;DHT22;19493;48.042;7.584;2023-08-08T06:29:33;14.00;99.90
26505;DHT22;19493;48.042;7.584;2023-08-08T06:31:59;14.20;99.90
26505;DHT22;19493;48.042;7.584;2023-08-08T06:34:24;14.30;99.90
26505;DHT22;19493;48.042;7.584;2023-08-08T06:36:50;14.50;99.90
26505;DHT22;19493;48.042;7.584;2023-08-08T06:39:16;14.70;99.90
26505;DHT22;19493;48.042;7.584;2023-08-08T06:41:41;14.90;99.90
26505;DHT22;19493;48.042;7.584;2023-08-08T06:44:07;15.20;99.90
26505;DHT22;19493;48.042;7.584;2023-08-08T06:46:33;15.50;99.90
26505;DHT22;19493;48.042;7.584;2023-08-08T06:48:58;16.00;99.90
26505;DHT22;19493;48.042;7.584;2023-08-08T06:51:25;16.20;99.90
26505;DHT22;19493;48.042;7.584;2023-08-08T06:53:51;16.50;99.90
26505;DHT22;19493;48.042;7.584;2023-08-08T06:56:20;16.70;99.90
26505;DHT22;19493;48.042;7.584;2023-08-08T06:58:45;16.70;99.90
26505;DHT22;19493;48.042;7.584;2023-08-08T07:01:12;16.80;99.90
26505;DHT22;19493;48.042;7.584;2023-08-08T07:03:39;16.90;99.90
26505;DHT22;19493;48.042;7.584;2023-08-08T07:06:05;17.10;99.90
26505;DHT22;19493;48.042;7.584;2023-08-08T07:08:31;17.10;99.90
26505;DHT22;19493;48.042;7.584;2023-08-08T07:10:57;17.20;99.90
26505;DHT22;19493;48.042;7.584;2023-08-08T07:13:23;17.40;99.90
26505;DHT22;19493;48.042;7.584;2023-08-08T07:15:48;17.60;99.90
26505;DHT22;19493;48.042;7.584;2023-08-08T07:18:14;17.60;99.90
26505;DHT22;19493;48.042;7.584;2023-08-08T07:20:40;17.50;99.90
26505;DHT22;19493;48.042;7.584;2023-08-08T07:23:06;17.50;99.90
26505;DHT22;19493;48.042;7.584;2023-08-08T07:25:32;17.60;99.90
26505;DHT22;19493;48.042;7.584;2023-08-08T07:27:57;17.80;99.90
26505;DHT22;19493;48.042;7.584;2023-08-08T07:30:25;17.90;99.90
26505;DHT22;19493;48.042;7.584;2023-08-08T07:32:51;18.00;99.90
26505;DHT22;19493;48.042;7.584;2023-08-08T07:35:16;18.10;99.90
26505;DHT22;19493;48.042;7.584;2023-08-08T07:37:43;18.30;99.90
26505;DHT22;19493;48.042;7.584;2023-08-08T07:40:18;18.50;99.90
26505;DHT22;19493;48.042;7.584;2023-08-08T07:42:45;18.50;99.90
26505;DHT22;19493;48.042;7.584;2023-08-08T07:45:11;18.60;99.90
26505;DHT22;19493;48.042;7.584;2023-08-08T07:47:36;18.70;99.90
26505;DHT22;19493;48.042;7.584;2023-08-08T07:50:02;18.70;99.90
26505;DHT22;19493;48.042;7.584;2023-08-08T07:52:28;18.90;99.90
26505;DHT22;19493;48.042;7.584;2023-08-08T07:54:53;18.90;99.90
26505;DHT22;19493;48.042;7.584;2023-08-08T07:57:19;18.80;99.90
26505;DHT22;19493;48.042;7.584;2023-08-08T07:59:44;18.80;99.90
26505;DHT22;19493;48.042;7.584;2023-08-08T08:02:10;18.90;99.90
26505;DHT22;19493;48.042;7.584;2023-08-08T08:04:35;19.00;99.90
26505;DHT22;19493;48.042;7.584;2023-08-08T08:07:01;19.20;99.90
26505;DHT22;19493;48.042;7.584;2023-08-08T08:09:28;19.20;99.90
26505;DHT22;19493;48.042;7.584;2023-08-08T08:11:53;19.30;99.90
26505;DHT22;19493;48.042;7.584;2023-08-08T08:14:19;19.50;99.90
26505;DHT22;19493;48.042;7.584;2023-08-08T08:16:46;19.60;99.90
26505;DHT22;19493;48.042;7.584;2023-08-08T08:19:11;19.70;99.90
26505;DHT22;19493;48.042;7.584;2023-08-08T08:21:37;20.10;99.90
26505;DHT22;19493;48.042;7.584;2023-08-08T08:24:04;20.40;99.90
26505;DHT22;19493;48.042;7.584;2023-08-08T08:26:29;20.80;99.90
26505;DHT22;19493;48.042;7.584;2023-08-08T08:28:55;21.20;99.90
26505;DHT22;19493;48.042;7.584;2023-08-08T08:31:20;21.50;99.90
26505;DHT22;19493;48.042;7.584;2023-08-08T08:33:46;21.60;99.90
26505;DHT22;19493;48.042;7.584;2023-08-08T08:36:12;21.50;99.90
26505;DHT22;19493;48.042;7.584;2023-08-08T08:38:38;21.60;99.90
26505;DHT22;19493;48.042;7.584;2023-08-08T08:41:04;21.70;99.90
26505;DHT22;19493;48.042;7.584;2023-08-08T08:43:33;21.80;99.90
26505;DHT22;19493;48.042;7.584;2023-08-08T08:46:00;22.10;99.90
26505;DHT22;19493;48.042;7.584;2023-08-08T08:48:29;22.60;99.90
26505;DHT22;19493;48.042;7.584;2023-08-08T08:50:56;23.20;99.90
26505;DHT22;19493;48.042;7.584;2023-08-08T08:53:23;23.30;99.90
26505;DHT22;19493;48.042;7.584;2023-08-08T08:55:48;23.30;99.90
26505;DHT22;19493;48.042;7.584;2023-08-08T08:58:15;23.40;99.90
26505;DHT22;19493;48.042;7.584;2023-08-08T09:00:44;24.00;99.90
26505;DHT22;19493;48.042;7.584;2023-08-08T09:03:11;24.80;99.90
26505;DHT22;19493;48.042;7.584;2023-08-08T09:05:38;25.00;99.90
26505;DHT22;19493;48.042;7.584;2023-08-08T09:08:05;25.30;99.90
26505;DHT22;19493;48.042;7.584;2023-08-08T09:13:06;27.30;98.70
26505;DHT22;19493;48.042;7.584;2023-08-08T09:15:33;27.90;97.80
26505;DHT22;19493;48.042;7.584;2023-08-08T09:18:00;27.80;94.50
26505;DHT22;19493;48.042;7.584;2023-08-08T09:20:26;27.40;93.90
26505;DHT22;19493;48.042;7.584;2023-08-08T09:22:55;27.80;93.60
26505;DHT22;19493;48.042;7.584;2023-08-08T09:25:21;28.30;90.40
26505;DHT22;19493;48.042;7.584;2023-08-08T09:27:47;27.60;91.10
26505;DHT22;19493;48.042;7.584;2023-08-08T09:30:13;27.40;90.10
26505;DHT22;19493;48.042;7.584;2023-08-08T09:32:39;27.40;90.10
26505;DHT22;19493;48.042;7.584;2023-08-08T09:35:04;27.10;90.20
26505;DHT22;19493;48.042;7.584;2023-08-08T09:37:33;27.10;90.90
26505;DHT22;19493;48.042;7.584;2023-08-08T11:27:53;25.00;67.70
26505;DHT22;19493;48.042;7.584;2023-08-08T11:30:19;25.00;67.50
26505;DHT22;19493;48.042;7.584;2023-08-08T11:32:47;25.60;67.80
26505;DHT22;19493;48.042;7.584;2023-08-08T11:35:21;26.60;66.10
26505;DHT22;19493;48.042;7.584;2023-08-08T11:37:47;27.50;64.80
26505;DHT22;19493;48.042;7.584;2023-08-08T11:40:14;28.00;64.50
26505;DHT22;19493;48.042;7.584;2023-08-08T11:42:41;28.50;62.90
26505;DHT22;19493;48.042;7.584;2023-08-08T11:45:09;29.20;61.40
26505;DHT22;19493;48.042;7.584;2023-08-08T11:47:35;29.00;60.00
26505;DHT22;19493;48.042;7.584;2023-08-08T11:50:04;29.50;59.30
26505;DHT22;19493;48.042;7.584;2023-08-08T11:52:30;29.30;58.70
26505;DHT22;19493;48.042;7.584;2023-08-08T11:54:58;28.70;59.40
26505;DHT22;19493;48.042;7.584;2023-08-08T11:57:27;28.40;59.60
26505;DHT22;19493;48.042;7.584;2023-08-08T11:59:54;28.20;59.50
26505;DHT22;19493;48.042;7.584;2023-08-08T12:02:20;27.70;60.80
26505;DHT22;19493;48.042;7.584;2023-08-08T12:04:46;27.00;60.80
26505;DHT22;19493;48.042;7.584;2023-08-08T12:07:11;26.30;61.60
26505;DHT22;19493;48.042;7.584;2023-08-08T12:09:37;25.70;64.50
26505;DHT22;19493;48.042;7.584;2023-08-08T12:12:04;25.00;63.90
26505;DHT22;19493;48.042;7.584;2023-08-08T12:14:31;24.40;64.70
26505;DHT22;19493;48.042;7.584;2023-08-08T12:17:01;23.90;66.10
26505;DHT22;19493;48.042;7.584;2023-08-08T12:19:27;23.50;68.60
26505;DHT22;19493;48.042;7.584;2023-08-08T12:21:54;23.20;70.40
26505;DHT22;19493;48.042;7.584;2023-08-08T12:24:20;22.90;71.20
26505;DHT22;19493;48.042;7.584;2023-08-08T12:26:45;22.70;72.20
26505;DHT22;19493;48.042;7.584;2023-08-08T12:29:11;22.60;72.50
26505;DHT22;19493;48.042;7.584;2023-08-08T12:31:37;22.50;73.30
26505;DHT22;19493;48.042;7.584;2023-08-08T12:34:03;22.50;73.60
26505;DHT22;19493;48.042;7.584;2023-08-08T12:36:29;22.50;74.00
26505;DHT22;19493;48.042;7.584;2023-08-08T12:38:55;22.60;74.50
26505;DHT22;19493;48.042;7.584;2023-08-08T12:41:22;22.80;76.70
26505;DHT22;19493;48.042;7.584;2023-08-08T12:43:47;23.10;75.50
26505;DHT22;19493;48.042;7.584;2023-08-08T12:46:13;23.40;74.30
26505;DHT22;19493;48.042;7.584;2023-08-08T12:48:38;23.70;73.50
26505;DHT22;19493;48.042;7.584;2023-08-08T12:51:04;23.90;74.00
26505;DHT22;19493;48.042;7.584;2023-08-08T12:53:33;24.10;73.70
26505;DHT22;19493;48.042;7.584;2023-08-08T12:56:00;24.20;73.80
26505;DHT22;19493;48.042;7.584;2023-08-08T12:58:25;24.30;74.00
26505;DHT22;19493;48.042;7.584;2023-08-08T13:00:51;24.20;72.70
26505;DHT22;19493;48.042;7.584;2023-08-08T13:03:16;24.20;74.00
26505;DHT22;19493;48.042;7.584;2023-08-08T13:05:42;24.20;73.50
26505;DHT22;19493;48.042;7.584;2023-08-08T13:08:08;24.20;74.50
26505;DHT22;19493;48.042;7.584;2023-08-08T13:10:36;24.10;75.00
26505;DHT22;19493;48.042;7.584;2023-08-08T13:13:01;23.90;74.50
26505;DHT22;19493;48.042;7.584;2023-08-08T13:15:27;23.60;75.60
26505;DHT22;19493;48.042;7.584;2023-08-08T13:17:52;23.30;75.00
26505;DHT22;19493;48.042;7.584;2023-08-08T13:20:18;23.00;77.00
26505;DHT22;19493;48.042;7.584;2023-08-08T13:22:44;22.80;77.00
26505;DHT22;19493;48.042;7.584;2023-08-08T13:25:09;22.80;79.40
26505;DHT22;19493;48.042;7.584;2023-08-08T13:27:35;23.00;79.50
26505;DHT22;19493;48.042;7.584;2023-08-08T13:30:01;23.60;78.40
26505;DHT22;19493;48.042;7.584;2023-08-08T13:32:27;27.30;78.00
26505;DHT22;19493;48.042;7.584;2023-08-08T13:34:53;31.00;67.70
26505;DHT22;19493;48.042;7.584;2023-08-08T13:37:19;34.20;61.60
26505;DHT22;19493;48.042;7.584;2023-08-08T13:39:44;36.40;51.20
26505;DHT22;19493;48.042;7.584;2023-08-08T13:42:10;37.90;47.80
26505;DHT22;19493;48.042;7.584;2023-08-08T13:44:36;38.80;46.30
26505;DHT22;19493;48.042;7.584;2023-08-08T13:47:02;39.40;42.10
26505;DHT22;19493;48.042;7.584;2023-08-08T13:49:27;37.00;40.30
26505;DHT22;19493;48.042;7.584;2023-08-08T13:51:53;34.30;42.10
26505;DHT22;19493;48.042;7.584;2023-08-08T13:54:19;32.00;44.90
26505;DHT22;19493;48.042;7.584;2023-08-08T13:56:45;30.00;48.30
26505;DHT22;19493;48.042;7.584;2023-08-08T13:59:11;28.40;49.20
26505;DHT22;19493;48.042;7.584;2023-08-08T14:01:37;27.30;51.80
26505;DHT22;19493;48.042;7.584;2023-08-08T14:04:02;26.40;53.10
26505;DHT22;19493;48.042;7.584;2023-08-08T14:06:28;25.50;54.90
26505;DHT22;19493;48.042;7.584;2023-08-08T14:08:54;24.90;56.70
26505;DHT22;19493;48.042;7.584;2023-08-08T14:11:20;24.80;57.60
26505;DHT22;19493;48.042;7.584;2023-08-08T14:13:45;24.90;59.30
26505;DHT22;19493;48.042;7.584;2023-08-08T14:16:11;25.30;57.70
26505;DHT22;19493;48.042;7.584;2023-08-08T14:18:37;25.80;57.00
26505;DHT22;19493;48.042;7.584;2023-08-08T14:21:03;26.00;55.80
26505;DHT22;19493;48.042;7.584;2023-08-08T14:23:30;26.00;56.70
26505;DHT22;19493;48.042;7.584;2023-08-08T14:25:55;26.20;58.80
26505;DHT22;19493;48.042;7.584;2023-08-08T14:28:21;26.20;59.60
26505;DHT22;19493;48.042;7.584;2023-08-08T14:30:47;26.10;59.30
26505;DHT22;19493;48.042;7.584;2023-08-08T14:33:16;26.30;57.90
26505;DHT22;19493;48.042;7.584;2023-08-08T14:35:42;26.50;59.70
26505;DHT22;19493;48.042;7.584;2023-08-08T14:40:33;27.60;54.40
26505;DHT22;19493;48.042;7.584;2023-08-08T14:43:00;28.00;55.80
26505;DHT22;19493;48.042;7.584;2023-08-08T14:45:26;28.20;56.00
26505;DHT22;19493;48.042;7.584;2023-08-08T14:47:52;28.40;54.70
26505;DHT22;19493;48.042;7.584;2023-08-08T14:50:18;28.40;53.20
26505;DHT22;19493;48.042;7.584;2023-08-08T14:52:44;28.40;54.00
26505;DHT22;19493;48.042;7.584;2023-08-08T14:55:10;28.00;53.20
26505;DHT22;19493;48.042;7.584;2023-08-08T14:57:35;27.70;53.00
26505;DHT22;19493;48.042;7.584;2023-08-08T15:00:01;27.10;53.50
26505;DHT22;19493;48.042;7.584;2023-08-08T15:02:27;26.80;54.90
26505;DHT22;19493;48.042;7.584;2023-08-08T15:04:52;26.60;54.50
26505;DHT22;19493;48.042;7.584;2023-08-08T15:07:19;27.30;54.30
26505;DHT22;19493;48.042;7.584;2023-08-08T15:09:44;30.10;52.40
26505;DHT22;19493;48.042;7.584;2023-08-08T15:12:10;32.80;49.00
26505;DHT22;19493;48.042;7.584;2023-08-08T15:14:35;33.40;46.70
26505;DHT22;19493;48.042;7.584;2023-08-08T15:17:01;33.60;44.90
26505;DHT22;19493;48.042;7.584;2023-08-08T15:19:26;35.30;44.00
26505;DHT22;19493;48.042;7.584;2023-08-08T15:21:53;36.70;42.20
26505;DHT22;19493;48.042;7.584;2023-08-08T15:24:19;36.80;39.10
26505;DHT22;19493;48.042;7.584;2023-08-08T15:26:44;34.90;40.20
26505;DHT22;19493;48.042;7.584;2023-08-08T15:29:10;32.70;42.60
26505;DHT22;19493;48.042;7.584;2023-08-08T15:31:36;30.90;45.80
26505;DHT22;19493;48.042;7.584;2023-08-08T15:34:02;29.50;47.80
26505;DHT22;19493;48.042;7.584;2023-08-08T15:36:28;28.60;50.40
26505;DHT22;19493;48.042;7.584;2023-08-08T15:38:54;28.00;51.00
26505;DHT22;19493;48.042;7.584;2023-08-08T15:46:22;27.90;51.60
26505;DHT22;19493;48.042;7.584;2023-08-08T15:48:48;27.70;52.20
26505;DHT22;19493;48.042;7.584;2023-08-08T15:51:14;27.40;51.90
26505;DHT22;19493;48.042;7.584;2023-08-08T15:53:39;26.90;52.90
26505;DHT22;19493;48.042;7.584;2023-08-08T15:56:05;26.60;54.10
26505;DHT22;19493;48.042;7.584;2023-08-08T15:58:32;26.50;55.40
26505;DHT22;19493;48.042;7.584;2023-08-08T16:00:58;26.40;55.80
26505;DHT22;19493;48.042;7.584;2023-08-08T16:03:24;26.10;56.30
26505;DHT22;19493;48.042;7.584;2023-08-08T16:08:25;25.30;55.70
26505;DHT22;19493;48.042;7.584;2023-08-08T16:10:51;25.20;56.50
26505;DHT22;19493;48.042;7.584;2023-08-08T16:13:16;25.10;56.70
26505;DHT22;19493;48.042;7.584;2023-08-08T16:15:42;25.20;56.60
26505;DHT22;19493;48.042;7.584;2023-08-08T16:18:07;25.40;57.10
26505;DHT22;19493;48.042;7.584;2023-08-08T16:20:33;25.40;56.60
26505;DHT22;19493;48.042;7.584;2023-08-08T16:22:59;25.30;56.70
26505;DHT22;19493;48.042;7.584;2023-08-08T16:25:24;25.50;57.00
26505;DHT22;19493;48.042;7.584;2023-08-08T16:27:50;25.70;56.50
26505;DHT22;19493;48.042;7.584;2023-08-08T16:30:15;25.70;56.20
26505;DHT22;19493;48.042;7.584;2023-08-08T16:32:41;25.50;56.40
26505;DHT22;19493;48.042;7.584;2023-08-08T16:35:07;25.20;56.30
26505;DHT22;19493;48.042;7.584;2023-08-08T16:37:32;25.00;57.50
26505;DHT22;19493;48.042;7.584;2023-08-08T16:39:58;24.70;58.70
26505;DHT22;19493;48.042;7.584;2023-08-08T16:42:24;24.50;58.90
26505;DHT22;19493;48.042;7.584;2023-08-08T16:44:49;24.40;59.50
26505;DHT22;19493;48.042;7.584;2023-08-08T16:47:15;24.30;60.40
26505;DHT22;19493;48.042;7.584;2023-08-08T16:49:40;24.20;61.50
26505;DHT22;19493;48.042;7.584;2023-08-08T16:52:06;24.20;61.00
26505;DHT22;19493;48.042;7.584;2023-08-08T16:54:33;24.10;61.70
26505;DHT22;19493;48.042;7.584;2023-08-08T16:56:59;24.00;62.30
26505;DHT22;19493;48.042;7.584;2023-08-08T16:59:24;23.80;62.50
26505;DHT22;19493;48.042;7.584;2023-08-08T17:01:50;23.80;62.80
26505;DHT22;19493;48.042;7.584;2023-08-08T17:04:15;23.60;63.50
26505;DHT22;19493;48.042;7.584;2023-08-08T17:08:53;23.40;63.90
26505;DHT22;19493;48.042;7.584;2023-08-08T17:11:18;23.10;65.20
26505;DHT22;19493;48.042;7.584;2023-08-08T17:13:44;22.90;65.20
26505;DHT22;19493;48.042;7.584;2023-08-08T17:18:38;22.70;65.20
26505;DHT22;19493;48.042;7.584;2023-08-08T17:21:03;22.80;66.20
26505;DHT22;19493;48.042;7.584;2023-08-08T17:23:29;22.80;66.20
26505;DHT22;19493;48.042;7.584;2023-08-08T17:25:55;22.80;66.00
26505;DHT22;19493;48.042;7.584;2023-08-08T17:28:20;22.90;65.70
26505;DHT22;19493;48.042;7.584;2023-08-08T17:30:46;22.90;65.90